sensor_id;sensor_type;location;lat;lon;timestamp;P1;durP1;ratioP1;P2;durP2;ratioP2
21741;SDS011;11033;47.490;11.116;2023-11-21T00:02:01;11.23;;;5.50;;
21741;SDS011;11033;47.490;11.116;2023-11-21T00:04:26;7.18;;;4.80;;
21741;SDS011;11033;47.490;11.116;2023-11-21T00:06:52;8.18;;;4.55;;
21741;SDS011;11033;47.490;11.116;2023-11-21T00:09:18;9.85;;;5.22;;
21741;SDS011;11033;47.490;11.116;2023-11-21T00:11:44;7.20;;;4.45;;
21741;SDS011;11033;47.490;11.116;2023-11-21T00:14:13;5.82;;;4.40;;
21741;SDS011;11033;47.490;11.116;2023-11-21T00:16:40;8.57;;;5.20;;
21741;SDS011;11033;47.490;11.116;2023-11-21T00:19:05;8.35;;;5.30;;
21741;SDS011;11033;47.490;11.116;2023-11-21T00:21:31;9.85;;;6.18;;
21741;SDS011;11033;47.490;11.116;2023-11-21T00:23:56;7.47;;;4.53;;
21741;SDS011;11033;47.490;11.116;2023-11-21T00:26:21;8.05;;;5.05;;
21741;SDS011;11033;47.490;11.116;2023-11-21T00:28:47;9.00;;;5.18;;
21741;SDS011;11033;47.490;11.116;2023-11-21T00:31:12;5.88;;;4.50;;
21741;SDS011;11033;47.490;11.116;2023-11-21T00:33:37;7.55;;;4.47;;
21741;SDS011;11033;47.490;11.116;2023-11-21T00:36:02;6.82;;;4.93;;
21741;SDS011;11033;47.490;11.116;2023-11-21T00:38:28;7.97;;;5.15;;
21741;SDS011;11033;47.490;11.116;2023-11-21T00:40:53;8.43;;;4.88;;
21741;SDS011;11033;47.490;11.116;2023-11-21T00:43:21;5.30;;;4.40;;
21741;SDS011;11033;47.490;11.116;2023-11-21T00:45:47;6.82;;;4.60;;
21741;SDS011;11033;47.490;11.116;2023-11-21T00:48:14;10.25;;;5.85;;
21741;SDS011;11033;47.490;11.116;2023-11-21T00:50:39;7.22;;;4.13;;
21741;SDS011;11033;47.490;11.116;2023-11-21T00:53:05;8.48;;;4.30;;
21741;SDS011;11033;47.490;11.116;2023-11-21T00:55:32;7.63;;;4.05;;
21741;SDS011;11033;47.490;11.116;2023-11-21T00:57:58;9.70;;;5.03;;
21741;SDS011;11033;47.490;11.116;2023-11-21T01:00:23;6.10;;;4.07;;
21741;SDS011;11033;47.490;11.116;2023-11-21T01:02:48;5.60;;;4.45;;
21741;SDS011;11033;47.490;11.116;2023-11-21T01:05:14;7.95;;;3.92;;
21741;SDS011;11033;47.490;11.116;2023-11-21T01:07:39;5.25;;;3.30;;
21741;SDS011;11033;47.490;11.116;2023-11-21T01:10:05;6.97;;;3.40;;
21741;SDS011;11033;47.490;11.116;2023-11-21T01:12:32;4.65;;;3.53;;
21741;SDS011;11033;47.490;11.116;2023-11-21T01:15:02;5.67;;;3.90;;
21741;SDS011;11033;47.490;11.116;2023-11-21T01:17:28;8.55;;;3.58;;
21741;SDS011;11033;47.490;11.116;2023-11-21T01:19:54;4.95;;;3.22;;
21741;SDS011;11033;47.490;11.116;2023-11-21T01:22:19;8.35;;;3.50;;
21741;SDS011;11033;47.490;11.116;2023-11-21T01:24:50;7.22;;;3.70;;
21741;SDS011;11033;47.490;11.116;2023-11-21T01:27:16;6.95;;;3.92;;
21741;SDS011;11033;47.490;11.116;2023-11-21T01:29:42;5.50;;;3.42;;
21741;SDS011;11033;47.490;11.116;2023-11-21T01:32:07;8.80;;;4.13;;
21741;SDS011;11033;47.490;11.116;2023-11-21T01:34:32;6.22;;;4.35;;
21741;SDS011;11033;47.490;11.116;2023-11-21T01:36:58;6.07;;;4.50;;
21741;SDS011;11033;47.490;11.116;2023-11-21T01:39:23;6.50;;;4.00;;
21741;SDS011;11033;47.490;11.116;2023-11-21T01:41:50;7.45;;;4.70;;
21741;SDS011;11033;47.490;11.116;2023-11-21T01:44:16;6.13;;;4.38;;
21741;SDS011;11033;47.490;11.116;2023-11-21T01:46:44;9.73;;;4.50;;
21741;SDS011;11033;47.490;11.116;2023-11-21T01:49:10;7.25;;;3.70;;
21741;SDS011;11033;47.490;11.116;2023-11-21T01:51:38;6.88;;;3.55;;
21741;SDS011;11033;47.490;11.116;2023-11-21T01:54:04;6.88;;;4.75;;
21741;SDS011;11033;47.490;11.116;2023-11-21T01:56:30;5.03;;;4.00;;
21741;SDS011;11033;47.490;11.116;2023-11-21T01:58:56;6.88;;;4.50;;
21741;SDS011;11033;47.490;11.116;2023-11-21T02:01:22;5.78;;;4.25;;
21741;SDS011;11033;47.490;11.116;2023-11-21T02:03:47;6.35;;;4.28;;
21741;SDS011;11033;47.490;11.116;2023-11-21T02:06:13;6.70;;;3.83;;
21741;SDS011;11033;47.490;11.116;2023-11-21T02:08:38;7.13;;;5.07;;
21741;SDS011;11033;47.490;11.116;2023-11-21T02:11:04;8.07;;;4.47;;
21741;SDS011;11033;47.490;11.116;2023-11-21T02:13:30;6.32;;;3.67;;
21741;SDS011;11033;47.490;11.116;2023-11-21T02:15:56;7.43;;;3.80;;
21741;SDS011;11033;47.490;11.116;2023-11-21T02:18:23;7.30;;;4.63;;
21741;SDS011;11033;47.490;11.116;2023-11-21T02:20:48;8.07;;;4.45;;
21741;SDS011;11033;47.490;11.116;2023-11-21T02:23:13;4.75;;;4.10;;
21741;SDS011;11033;47.490;11.116;2023-11-21T02:25:39;8.23;;;4.88;;
21741;SDS011;11033;47.490;11.116;2023-11-21T02:28:07;7.00;;;3.78;;
21741;SDS011;11033;47.490;11.116;2023-11-21T02:30:33;6.30;;;4.22;;
21741;SDS011;11033;47.490;11.116;2023-11-21T02:32:58;8.32;;;4.97;;
21741;SDS011;11033;47.490;11.116;2023-11-21T02:35:24;5.93;;;4.13;;
21741;SDS011;11033;47.490;11.116;2023-11-21T02:37:53;5.43;;;3.78;;
21741;SDS011;11033;47.490;11.116;2023-11-21T02:40:18;8.30;;;3.95;;
21741;SDS011;11033;47.490;11.116;2023-11-21T02:42:45;5.20;;;3.70;;
21741;SDS011;11033;47.490;11.116;2023-11-21T02:45:16;8.27;;;4.53;;
21741;SDS011;11033;47.490;11.116;2023-11-21T02:47:45;7.78;;;4.10;;
21741;SDS011;11033;47.490;11.116;2023-11-21T02:50:10;9.70;;;4.75;;
21741;SDS011;11033;47.490;11.116;2023-11-21T02:52:36;6.68;;;4.03;;
21741;SDS011;11033;47.490;11.116;2023-11-21T02:55:02;5.97;;;3.60;;
21741;SDS011;11033;47.490;11.116;2023-11-21T02:57:28;7.75;;;4.45;;
21741;SDS011;11033;47.490;11.116;2023-11-21T02:59:53;9.00;;;4.30;;
21741;SDS011;11033;47.490;11.116;2023-11-21T03:02:19;6.10;;;3.85;;
21741;SDS011;11033;47.490;11.116;2023-11-21T03:04:45;4.93;;;3.67;;
21741;SDS011;11033;47.490;11.116;2023-11-21T03:07:10;5.45;;;4.00;;
21741;SDS011;11033;47.490;11.116;2023-11-21T03:09:35;4.05;;;3.38;;
21741;SDS011;11033;47.490;11.116;2023-11-21T03:12:01;4.85;;;3.33;;
21741;SDS011;11033;47.490;11.116;2023-11-21T03:14:26;6.85;;;4.47;;
21741;SDS011;11033;47.490;11.116;2023-11-21T03:16:51;5.15;;;3.83;;
21741;SDS011;11033;47.490;11.116;2023-11-21T03:19:16;7.03;;;4.72;;
21741;SDS011;11033;47.490;11.116;2023-11-21T03:21:42;6.85;;;4.88;;
21741;SDS011;11033;47.490;11.116;2023-11-21T03:24:07;6.50;;;5.15;;
21741;SDS011;11033;47.490;11.116;2023-11-21T03:26:33;6.60;;;4.10;;
21741;SDS011;11033;47.490;11.116;2023-11-21T03:28:58;5.55;;;4.90;;
21741;SDS011;11033;47.490;11.116;2023-11-21T03:31:23;6.80;;;4.22;;
21741;SDS011;11033;47.490;11.116;2023-11-21T03:33:48;5.50;;;4.13;;
21741;SDS011;11033;47.490;11.116;2023-11-21T03:36:14;6.43;;;4.50;;
21741;SDS011;11033;47.490;11.116;2023-11-21T03:38:43;4.97;;;4.20;;
21741;SDS011;11033;47.490;11.116;2023-11-21T03:41:08;7.50;;;4.20;;
21741;SDS011;11033;47.490;11.116;2023-11-21T03:43:35;6.22;;;4.20;;
21741;SDS011;11033;47.490;11.116;2023-11-21T03:46:01;6.88;;;4.00;;
21741;SDS011;11033;47.490;11.116;2023-11-21T03:48:26;6.35;;;4.50;;
21741;SDS011;11033;47.490;11.116;2023-11-21T03:50:51;8.27;;;4.57;;
21741;SDS011;11033;47.490;11.116;2023-11-21T03:53:17;4.60;;;3.70;;
21741;SDS011;11033;47.490;11.116;2023-11-21T03:55:42;6.88;;;4.57;;
21741;SDS011;11033;47.490;11.116;2023-11-21T03:58:07;6.43;;;3.70;;
21741;SDS011;11033;47.490;11.116;2023-11-21T04:00:32;5.03;;;3.75;;
21741;SDS011;11033;47.490;11.116;2023-11-21T04:02:58;6.22;;;4.53;;
21741;SDS011;11033;47.490;11.116;2023-11-21T04:05:23;7.97;;;4.60;;
21741;SDS011;11033;47.490;11.116;2023-11-21T04:07:49;4.60;;;4.03;;
21741;SDS011;11033;47.490;11.116;2023-11-21T04:10:15;9.77;;;4.20;;
21741;SDS011;11033;47.490;11.116;2023-11-21T04:12:41;6.28;;;4.47;;
21741;SDS011;11033;47.490;11.116;2023-11-21T04:15:06;5.70;;;3.88;;
21741;SDS011;11033;47.490;11.116;2023-11-21T04:17:33;6.43;;;3.83;;
21741;SDS011;11033;47.490;11.116;2023-11-21T04:19:59;6.28;;;4.50;;
21741;SDS011;11033;47.490;11.116;2023-11-21T04:22:24;5.93;;;4.05;;
21741;SDS011;11033;47.490;11.116;2023-11-21T04:24:49;4.88;;;4.10;;
21741;SDS011;11033;47.490;11.116;2023-11-21T04:27:15;3.63;;;3.30;;
21741;SDS011;11033;47.490;11.116;2023-11-21T04:29:42;5.70;;;3.33;;
21741;SDS011;11033;47.490;11.116;2023-11-21T04:32:08;5.13;;;4.40;;
21741;SDS011;11033;47.490;11.116;2023-11-21T04:34:33;4.85;;;3.25;;
21741;SDS011;11033;47.490;11.116;2023-11-21T04:36:59;4.78;;;3.63;;
21741;SDS011;11033;47.490;11.116;2023-11-21T04:39:25;4.47;;;3.42;;
21741;SDS011;11033;47.490;11.116;2023-11-21T04:41:51;5.45;;;3.80;;
21741;SDS011;11033;47.490;11.116;2023-11-21T04:44:16;6.72;;;3.70;;
21741;SDS011;11033;47.490;11.116;2023-11-21T04:46:42;6.93;;;4.13;;
21741;SDS011;11033;47.490;11.116;2023-11-21T04:49:07;4.78;;;4.00;;
21741;SDS011;11033;47.490;11.116;2023-11-21T04:51:32;5.03;;;4.10;;
21741;SDS011;11033;47.490;11.116;2023-11-21T04:53:58;4.65;;;4.10;;
21741;SDS011;11033;47.490;11.116;2023-11-21T04:56:23;4.90;;;3.97;;
21741;SDS011;11033;47.490;11.116;2023-11-21T04:58:48;4.70;;;3.40;;
21741;SDS011;11033;47.490;11.116;2023-11-21T05:01:13;4.38;;;3.83;;
21741;SDS011;11033;47.490;11.116;2023-11-21T05:03:39;4.13;;;3.20;;
21741;SDS011;11033;47.490;11.116;2023-11-21T05:06:04;6.60;;;3.97;;
21741;SDS011;11033;47.490;11.116;2023-11-21T05:08:30;5.05;;;3.83;;
21741;SDS011;11033;47.490;11.116;2023-11-21T05:10:56;5.72;;;4.07;;
21741;SDS011;11033;47.490;11.116;2023-11-21T05:13:21;4.70;;;3.60;;
21741;SDS011;11033;47.490;11.116;2023-11-21T05:15:47;5.70;;;4.78;;
21741;SDS011;11033;47.490;11.116;2023-11-21T05:18:12;4.30;;;3.67;;
21741;SDS011;11033;47.490;11.116;2023-11-21T05:20:40;7.85;;;4.40;;
21741;SDS011;11033;47.490;11.116;2023-11-21T05:23:06;5.32;;;3.97;;
21741;SDS011;11033;47.490;11.116;2023-11-21T05:25:33;5.53;;;3.80;;
21741;SDS011;11033;47.490;11.116;2023-11-21T05:27:58;7.20;;;4.63;;
21741;SDS011;11033;47.490;11.116;2023-11-21T05:30:26;5.25;;;4.55;;
21741;SDS011;11033;47.490;11.116;2023-11-21T05:32:51;7.78;;;4.05;;
21741;SDS011;11033;47.490;11.116;2023-11-21T05:35:17;6.28;;;3.40;;
21741;SDS011;11033;47.490;11.116;2023-11-21T05:37:42;4.15;;;3.78;;
21741;SDS011;11033;47.490;11.116;2023-11-21T05:40:08;4.55;;;3.95;;
21741;SDS011;11033;47.490;11.116;2023-11-21T05:42:35;3.95;;;3.60;;
21741;SDS011;11033;47.490;11.116;2023-11-21T05:45:01;7.45;;;3.75;;
21741;SDS011;11033;47.490;11.116;2023-11-21T05:47:38;4.90;;;3.65;;
21741;SDS011;11033;47.490;11.116;2023-11-21T05:50:05;10.75;;;6.45;;
21741;SDS011;11033;47.490;11.116;2023-11-21T05:52:34;5.30;;;4.22;;
21741;SDS011;11033;47.490;11.116;2023-11-21T05:54:59;5.28;;;4.32;;
21741;SDS011;11033;47.490;11.116;2023-11-21T05:57:25;7.13;;;5.50;;
21741;SDS011;11033;47.490;11.116;2023-11-21T05:59:50;7.05;;;6.32;;
21741;SDS011;11033;47.490;11.116;2023-11-21T06:02:16;10.18;;;7.18;;
21741;SDS011;11033;47.490;11.116;2023-11-21T06:04:41;7.13;;;5.75;;
21741;SDS011;11033;47.490;11.116;2023-11-21T06:07:07;8.52;;;6.20;;
21741;SDS011;11033;47.490;11.116;2023-11-21T06:09:32;6.88;;;6.13;;
21741;SDS011;11033;47.490;11.116;2023-11-21T06:11:57;7.72;;;5.03;;
21741;SDS011;11033;47.490;11.116;2023-11-21T06:14:23;8.40;;;4.93;;
21741;SDS011;11033;47.490;11.116;2023-11-21T06:16:49;7.80;;;4.93;;
21741;SDS011;11033;47.490;11.116;2023-11-21T06:19:16;6.10;;;5.15;;
21741;SDS011;11033;47.490;11.116;2023-11-21T06:21:44;6.95;;;5.55;;
21741;SDS011;11033;47.490;11.116;2023-11-21T06:24:10;10.65;;;5.95;;
21741;SDS011;11033;47.490;11.116;2023-11-21T06:26:36;5.03;;;4.35;;
21741;SDS011;11033;47.490;11.116;2023-11-21T06:29:01;7.68;;;4.82;;
21741;SDS011;11033;47.490;11.116;2023-11-21T06:31:28;7.72;;;5.47;;
21741;SDS011;11033;47.490;11.116;2023-11-21T06:33:54;8.23;;;5.50;;
21741;SDS011;11033;47.490;11.116;2023-11-21T06:36:19;7.53;;;4.63;;
21741;SDS011;11033;47.490;11.116;2023-11-21T06:38:44;7.80;;;5.70;;
21741;SDS011;11033;47.490;11.116;2023-11-21T06:41:10;7.03;;;5.43;;
21741;SDS011;11033;47.490;11.116;2023-11-21T06:43:37;7.75;;;5.20;;
21741;SDS011;11033;47.490;11.116;2023-11-21T06:46:03;6.40;;;5.10;;
21741;SDS011;11033;47.490;11.116;2023-11-21T06:48:29;9.27;;;5.00;;
21741;SDS011;11033;47.490;11.116;2023-11-21T06:50:55;5.93;;;4.38;;
21741;SDS011;11033;47.490;11.116;2023-11-21T06:53:20;6.97;;;4.70;;
21741;SDS011;11033;47.490;11.116;2023-11-21T06:55:45;8.20;;;4.95;;
21741;SDS011;11033;47.490;11.116;2023-11-21T06:58:10;7.15;;;5.75;;
21741;SDS011;11033;47.490;11.116;2023-11-21T07:00:36;5.43;;;4.93;;
21741;SDS011;11033;47.490;11.116;2023-11-21T07:03:01;7.35;;;4.85;;
21741;SDS011;11033;47.490;11.116;2023-11-21T07:05:26;7.03;;;4.80;;
21741;SDS011;11033;47.490;11.116;2023-11-21T07:07:52;7.55;;;4.95;;
21741;SDS011;11033;47.490;11.116;2023-11-21T07:10:19;7.80;;;6.45;;
21741;SDS011;11033;47.490;11.116;2023-11-21T07:12:44;9.55;;;6.32;;
21741;SDS011;11033;47.490;11.116;2023-11-21T07:15:10;6.43;;;4.80;;
21741;SDS011;11033;47.490;11.116;2023-11-21T07:17:35;6.80;;;5.85;;
21741;SDS011;11033;47.490;11.116;2023-11-21T07:20:03;7.57;;;6.30;;
21741;SDS011;11033;47.490;11.116;2023-11-21T07:22:30;6.70;;;4.60;;
21741;SDS011;11033;47.490;11.116;2023-11-21T07:24:55;9.82;;;7.28;;
21741;SDS011;11033;47.490;11.116;2023-11-21T07:27:24;8.55;;;5.22;;
21741;SDS011;11033;47.490;11.116;2023-11-21T07:29:49;8.05;;;5.38;;
21741;SDS011;11033;47.490;11.116;2023-11-21T07:32:14;9.93;;;5.78;;
21741;SDS011;11033;47.490;11.116;2023-11-21T07:34:40;8.77;;;5.75;;
21741;SDS011;11033;47.490;11.116;2023-11-21T07:37:06;9.05;;;5.47;;
21741;SDS011;11033;47.490;11.116;2023-11-21T07:39:32;9.75;;;5.40;;
21741;SDS011;11033;47.490;11.116;2023-11-21T07:41:57;6.35;;;5.13;;
21741;SDS011;11033;47.490;11.116;2023-11-21T07:44:23;8.40;;;5.10;;
21741;SDS011;11033;47.490;11.116;2023-11-21T07:46:48;7.60;;;4.50;;
21741;SDS011;11033;47.490;11.116;2023-11-21T07:49:14;6.82;;;4.50;;
21741;SDS011;11033;47.490;11.116;2023-11-21T07:51:41;8.73;;;5.35;;
21741;SDS011;11033;47.490;11.116;2023-11-21T07:54:07;7.30;;;5.00;;
21741;SDS011;11033;47.490;11.116;2023-11-21T07:56:32;7.40;;;4.35;;
21741;SDS011;11033;47.490;11.116;2023-11-21T07:58:57;8.38;;;5.35;;
21741;SDS011;11033;47.490;11.116;2023-11-21T08:01:23;8.27;;;4.40;;
21741;SDS011;11033;47.490;11.116;2023-11-21T08:03:49;7.55;;;4.53;;
21741;SDS011;11033;47.490;11.116;2023-11-21T08:06:17;6.25;;;5.18;;
21741;SDS011;11033;47.490;11.116;2023-11-21T08:08:42;5.80;;;4.57;;
21741;SDS011;11033;47.490;11.116;2023-11-21T08:11:07;10.13;;;5.70;;
21741;SDS011;11033;47.490;11.116;2023-11-21T08:13:35;7.07;;;6.00;;
21741;SDS011;11033;47.490;11.116;2023-11-21T08:16:00;7.55;;;5.68;;
21741;SDS011;11033;47.490;11.116;2023-11-21T08:18:29;9.23;;;5.82;;
21741;SDS011;11033;47.490;11.116;2023-11-21T08:20:55;6.97;;;6.28;;
21741;SDS011;11033;47.490;11.116;2023-11-21T08:23:20;8.20;;;7.10;;
21741;SDS011;11033;47.490;11.116;2023-11-21T08:25:50;11.45;;;7.20;;
21741;SDS011;11033;47.490;11.116;2023-11-21T08:28:15;9.60;;;7.35;;
21741;SDS011;11033;47.490;11.116;2023-11-21T08:30:41;8.45;;;7.20;;
21741;SDS011;11033;47.490;11.116;2023-11-21T08:33:06;7.82;;;6.57;;
21741;SDS011;11033;47.490;11.116;2023-11-21T08:35:33;9.70;;;7.13;;
21741;SDS011;11033;47.490;11.116;2023-11-21T08:37:59;11.52;;;6.38;;
21741;SDS011;11033;47.490;11.116;2023-11-21T08:40:24;7.55;;;6.53;;
21741;SDS011;11033;47.490;11.116;2023-11-21T08:42:50;8.57;;;6.57;;
21741;SDS011;11033;47.490;11.116;2023-11-21T08:45:17;9.00;;;6.25;;
21741;SDS011;11033;47.490;11.116;2023-11-21T08:47:43;7.57;;;5.95;;
21741;SDS011;11033;47.490;11.116;2023-11-21T08:50:11;7.88;;;6.07;;
21741;SDS011;11033;47.490;11.116;2023-11-21T08:52:37;8.73;;;6.93;;
21741;SDS011;11033;47.490;11.116;2023-11-21T08:55:04;8.00;;;6.32;;
21741;SDS011;11033;47.490;11.116;2023-11-21T08:57:33;8.68;;;6.18;;
21741;SDS011;11033;47.490;11.116;2023-11-21T09:00:05;7.35;;;5.68;;
21741;SDS011;11033;47.490;11.116;2023-11-21T09:02:35;9.32;;;6.05;;
21741;SDS011;11033;47.490;11.116;2023-11-21T09:05:02;7.18;;;6.47;;
21741;SDS011;11033;47.490;11.116;2023-11-21T09:07:28;9.27;;;5.97;;
21741;SDS011;11033;47.490;11.116;2023-11-21T09:09:53;8.10;;;6.10;;
21741;SDS011;11033;47.490;11.116;2023-11-21T09:12:20;10.55;;;6.85;;
21741;SDS011;11033;47.490;11.116;2023-11-21T09:14:45;9.93;;;6.15;;
21741;SDS011;11033;47.490;11.116;2023-11-21T09:17:11;8.05;;;6.55;;
21741;SDS011;11033;47.490;11.116;2023-11-21T09:19:37;19.40;;;8.38;;
21741;SDS011;11033;47.490;11.116;2023-11-21T09:22:03;37.15;;;10.40;;
21741;SDS011;11033;47.490;11.116;2023-11-21T09:24:30;149.05;;;20.08;;
21741;SDS011;11033;47.490;11.116;2023-11-21T09:26:55;141.80;;;20.13;;
21741;SDS011;11033;47.490;11.116;2023-11-21T09:29:21;91.28;;;15.57;;
21741;SDS011;11033;47.490;11.116;2023-11-21T09:31:47;99.15;;;16.08;;
21741;SDS011;11033;47.490;11.116;2023-11-21T09:34:12;75.22;;;13.15;;
21741;SDS011;11033;47.490;11.116;2023-11-21T09:36:39;53.85;;;10.70;;
21741;SDS011;11033;47.490;11.116;2023-11-21T09:39:06;14.35;;;6.13;;
21741;SDS011;11033;47.490;11.116;2023-11-21T09:41:36;9.40;;;6.20;;
21741;SDS011;11033;47.490;11.116;2023-11-21T09:44:11;52.05;;;10.48;;
21741;SDS011;11033;47.490;11.116;2023-11-21T09:46:40;38.17;;;9.60;;
21741;SDS011;11033;47.490;11.116;2023-11-21T09:49:08;36.78;;;9.15;;
21741;SDS011;11033;47.490;11.116;2023-11-21T09:51:38;34.50;;;9.17;;
21741;SDS011;11033;47.490;11.116;2023-11-21T09:54:06;19.98;;;6.13;;
21741;SDS011;11033;47.490;11.116;2023-11-21T09:56:35;13.93;;;5.60;;
21741;SDS011;11033;47.490;11.116;2023-11-21T09:59:01;10.73;;;5.70;;
21741;SDS011;11033;47.490;11.116;2023-11-21T10:01:31;11.05;;;5.50;;
21741;SDS011;11033;47.490;11.116;2023-11-21T10:03:57;8.82;;;6.18;;
21741;SDS011;11033;47.490;11.116;2023-11-21T10:06:23;6.47;;;5.25;;
21741;SDS011;11033;47.490;11.116;2023-11-21T10:08:51;6.15;;;5.40;;
21741;SDS011;11033;47.490;11.116;2023-11-21T10:11:18;11.02;;;6.30;;
21741;SDS011;11033;47.490;11.116;2023-11-21T10:13:46;9.93;;;6.50;;
21741;SDS011;11033;47.490;11.116;2023-11-21T10:16:14;12.07;;;6.68;;
21741;SDS011;11033;47.490;11.116;2023-11-21T10:18:46;11.45;;;7.05;;
21741;SDS011;11033;47.490;11.116;2023-11-21T10:21:13;6.97;;;5.28;;
21741;SDS011;11033;47.490;11.116;2023-11-21T10:23:39;9.05;;;6.38;;
21741;SDS011;11033;47.490;11.116;2023-11-21T10:26:04;9.98;;;6.60;;
21741;SDS011;11033;47.490;11.116;2023-11-21T10:28:34;43.13;;;10.98;;
21741;SDS011;11033;47.490;11.116;2023-11-21T10:31:02;28.98;;;9.60;;
21741;SDS011;11033;47.490;11.116;2023-11-21T10:33:28;20.55;;;7.70;;
21741;SDS011;11033;47.490;11.116;2023-11-21T10:35:57;10.73;;;7.07;;
21741;SDS011;11033;47.490;11.116;2023-11-21T10:38:23;9.60;;;6.43;;
21741;SDS011;11033;47.490;11.116;2023-11-21T10:40:49;9.07;;;6.38;;
21741;SDS011;11033;47.490;11.116;2023-11-21T10:43:15;10.48;;;6.85;;
21741;SDS011;11033;47.490;11.116;2023-11-21T10:45:42;9.20;;;6.82;;
21741;SDS011;11033;47.490;11.116;2023-11-21T10:48:09;9.93;;;7.82;;
21741;SDS011;11033;47.490;11.116;2023-11-21T10:50:40;10.07;;;6.93;;
21741;SDS011;11033;47.490;11.116;2023-11-21T10:53:05;10.98;;;8.00;;
21741;SDS011;11033;47.490;11.116;2023-11-21T10:55:31;11.43;;;8.27;;
21741;SDS011;11033;47.490;11.116;2023-11-21T10:57:58;10.70;;;7.55;;
21741;SDS011;11033;47.490;11.116;2023-11-21T11:00:26;7.75;;;5.30;;
21741;SDS011;11033;47.490;11.116;2023-11-21T11:02:52;7.20;;;5.35;;
21741;SDS011;11033;47.490;11.116;2023-11-21T11:05:24;7.75;;;4.80;;
21741;SDS011;11033;47.490;11.116;2023-11-21T11:08:04;9.00;;;5.05;;
21741;SDS011;11033;47.490;11.116;2023-11-21T11:10:31;6.72;;;5.05;;
21741;SDS011;11033;47.490;11.116;2023-11-21T11:12:57;6.47;;;4.75;;
21741;SDS011;11033;47.490;11.116;2023-11-21T11:15:24;6.05;;;4.35;;
21741;SDS011;11033;47.490;11.116;2023-11-21T11:17:51;5.40;;;4.22;;
21741;SDS011;11033;47.490;11.116;2023-11-21T11:20:17;5.45;;;4.95;;
21741;SDS011;11033;47.490;11.116;2023-11-21T11:22:56;6.55;;;4.55;;
21741;SDS011;11033;47.490;11.116;2023-11-21T11:28:20;6.63;;;4.53;;
21741;SDS011;11033;47.490;11.116;2023-11-21T11:30:50;5.30;;;4.53;;
21741;SDS011;11033;47.490;11.116;2023-11-21T11:33:31;8.05;;;4.93;;
21741;SDS011;11033;47.490;11.116;2023-11-21T11:36:10;5.65;;;5.05;;
21741;SDS011;11033;47.490;11.116;2023-11-21T11:38:45;6.82;;;4.95;;
21741;SDS011;11033;47.490;11.116;2023-11-21T11:41:11;6.15;;;4.43;;
21741;SDS011;11033;47.490;11.116;2023-11-21T11:43:37;10.30;;;5.35;;
21741;SDS011;11033;47.490;11.116;2023-11-21T11:46:09;5.20;;;4.40;;
21741;SDS011;11033;47.490;11.116;2023-11-21T11:48:38;6.07;;;3.95;;
21741;SDS011;11033;47.490;11.116;2023-11-21T11:51:05;4.95;;;4.25;;
21741;SDS011;11033;47.490;11.116;2023-11-21T11:53:40;5.53;;;4.25;;
21741;SDS011;11033;47.490;11.116;2023-11-21T11:58:56;5.63;;;3.90;;
21741;SDS011;11033;47.490;11.116;2023-11-21T12:01:26;5.28;;;3.53;;
21741;SDS011;11033;47.490;11.116;2023-11-21T12:06:36;3.20;;;2.58;;
21741;SDS011;11033;47.490;11.116;2023-11-21T12:09:02;2.97;;;2.30;;
21741;SDS011;11033;47.490;11.116;2023-11-21T12:11:30;5.13;;;2.80;;
21741;SDS011;11033;47.490;11.116;2023-11-21T12:13:56;5.10;;;2.67;;
21741;SDS011;11033;47.490;11.116;2023-11-21T12:16:23;5.55;;;2.70;;
21741;SDS011;11033;47.490;11.116;2023-11-21T12:18:52;4.57;;;2.70;;
21741;SDS011;11033;47.490;11.116;2023-11-21T12:21:18;3.20;;;2.90;;
21741;SDS011;11033;47.490;11.116;2023-11-21T12:23:44;10.02;;;3.20;;
21741;SDS011;11033;47.490;11.116;2023-11-21T12:26:12;9.32;;;3.22;;
21741;SDS011;11033;47.490;11.116;2023-11-21T12:28:38;10.00;;;3.08;;
21741;SDS011;11033;47.490;11.116;2023-11-21T12:31:04;8.80;;;3.20;;
21741;SDS011;11033;47.490;11.116;2023-11-21T12:33:31;12.57;;;4.28;;
21741;SDS011;11033;47.490;11.116;2023-11-21T12:35:57;8.82;;;3.80;;
21741;SDS011;11033;47.490;11.116;2023-11-21T12:38:23;14.15;;;3.92;;
21741;SDS011;11033;47.490;11.116;2023-11-21T12:40:49;7.82;;;3.60;;
21741;SDS011;11033;47.490;11.116;2023-11-21T12:43:15;4.93;;;3.13;;
21741;SDS011;11033;47.490;11.116;2023-11-21T12:45:43;5.45;;;3.60;;
21741;SDS011;11033;47.490;11.116;2023-11-21T12:48:09;8.38;;;4.32;;
21741;SDS011;11033;47.490;11.116;2023-11-21T12:50:36;6.78;;;4.15;;
21741;SDS011;11033;47.490;11.116;2023-11-21T12:53:06;7.88;;;4.05;;
21741;SDS011;11033;47.490;11.116;2023-11-21T12:55:37;4.72;;;3.75;;
21741;SDS011;11033;47.490;11.116;2023-11-21T12:58:03;7.97;;;3.83;;
21741;SDS011;11033;47.490;11.116;2023-11-21T13:00:37;4.65;;;3.88;;
21741;SDS011;11033;47.490;11.116;2023-11-21T13:03:03;8.80;;;4.75;;
21741;SDS011;11033;47.490;11.116;2023-11-21T13:05:32;12.60;;;4.38;;
21741;SDS011;11033;47.490;11.116;2023-11-21T13:07:59;11.43;;;4.50;;
21741;SDS011;11033;47.490;11.116;2023-11-21T13:10:32;6.95;;;3.50;;
21741;SDS011;11033;47.490;11.116;2023-11-21T13:13:01;9.20;;;3.80;;
21741;SDS011;11033;47.490;11.116;2023-11-21T13:15:30;16.42;;;4.13;;
21741;SDS011;11033;47.490;11.116;2023-11-21T13:17:57;9.35;;;3.17;;
21741;SDS011;11033;47.490;11.116;2023-11-21T13:20:23;12.00;;;2.97;;
21741;SDS011;11033;47.490;11.116;2023-11-21T13:22:56;7.43;;;2.88;;
21741;SDS011;11033;47.490;11.116;2023-11-21T13:25:24;2.25;;;1.92;;
21741;SDS011;11033;47.490;11.116;2023-11-21T13:27:52;4.43;;;2.10;;
21741;SDS011;11033;47.490;11.116;2023-11-21T13:30:20;2.10;;;1.67;;
21741;SDS011;11033;47.490;11.116;2023-11-21T13:32:51;1.70;;;1.58;;
21741;SDS011;11033;47.490;11.116;2023-11-21T13:35:18;2.88;;;1.92;;
21741;SDS011;11033;47.490;11.116;2023-11-21T13:40:16;4.40;;;3.53;;
21741;SDS011;11033;47.490;11.116;2023-11-21T13:45:12;4.87;;;3.10;;
21741;SDS011;11033;47.490;11.116;2023-11-21T13:47:38;4.75;;;3.67;;
21741;SDS011;11033;47.490;11.116;2023-11-21T13:50:05;5.93;;;3.60;;
21741;SDS011;11033;47.490;11.116;2023-11-21T13:52:41;5.50;;;3.17;;
21741;SDS011;11033;47.490;11.116;2023-11-21T13:55:07;3.42;;;2.80;;
21741;SDS011;11033;47.490;11.116;2023-11-21T13:57:39;8.20;;;3.28;;
21741;SDS011;11033;47.490;11.116;2023-11-21T14:00:04;5.40;;;2.90;;
21741;SDS011;11033;47.490;11.116;2023-11-21T14:02:36;7.18;;;4.30;;
21741;SDS011;11033;47.490;11.116;2023-11-21T14:05:07;4.18;;;3.25;;
21741;SDS011;11033;47.490;11.116;2023-11-21T14:07:34;5.38;;;3.10;;
21741;SDS011;11033;47.490;11.116;2023-11-21T14:10:03;2.95;;;2.60;;
21741;SDS011;11033;47.490;11.116;2023-11-21T14:12:29;5.55;;;3.60;;
21741;SDS011;11033;47.490;11.116;2023-11-21T14:14:59;4.82;;;3.30;;
21741;SDS011;11033;47.490;11.116;2023-11-21T14:17:25;6.40;;;5.00;;
21741;SDS011;11033;47.490;11.116;2023-11-21T14:19:50;4.90;;;3.97;;
21741;SDS011;11033;47.490;11.116;2023-11-21T14:22:15;6.78;;;3.13;;
21741;SDS011;11033;47.490;11.116;2023-11-21T14:24:42;5.18;;;4.13;;
21741;SDS011;11033;47.490;11.116;2023-11-21T14:27:10;7.20;;;4.53;;
21741;SDS011;11033;47.490;11.116;2023-11-21T14:29:36;6.20;;;4.63;;
21741;SDS011;11033;47.490;11.116;2023-11-21T14:32:04;6.68;;;4.82;;
21741;SDS011;11033;47.490;11.116;2023-11-21T14:34:30;7.75;;;6.22;;
21741;SDS011;11033;47.490;11.116;2023-11-21T14:36:56;7.50;;;5.95;;
21741;SDS011;11033;47.490;11.116;2023-11-21T14:39:21;7.13;;;4.97;;
21741;SDS011;11033;47.490;11.116;2023-11-21T14:44:20;8.30;;;5.18;;
21741;SDS011;11033;47.490;11.116;2023-11-21T14:46:50;6.45;;;4.30;;